sensor_id;sensor_type;location;lat;lon;timestamp;P1;durP1;ratioP1;P2;durP2;ratioP2
2029;SDS011;1020;48.854;8.830;2023-06-14T00:01:51;4.30;;;3.90;;
2029;SDS011;1020;48.854;8.830;2023-06-14T00:04:18;4.03;;;3.83;;
2029;SDS011;1020;48.854;8.830;2023-06-14T00:06:46;5.00;;;4.53;;
2029;SDS011;1020;48.854;8.830;2023-06-14T00:09:13;4.30;;;4.00;;
2029;SDS011;1020;48.854;8.830;2023-06-14T00:11:42;4.43;;;4.13;;
2029;SDS011;1020;48.854;8.830;2023-06-14T00:14:10;4.57;;;4.17;;
2029;SDS011;1020;48.854;8.830;2023-06-14T00:16:37;4.77;;;4.43;;
2029;SDS011;1020;48.854;8.830;2023-06-14T00:19:07;3.90;;;3.60;;
2029;SDS011;1020;48.854;8.830;2023-06-14T00:21:35;4.30;;;4.00;;
2029;SDS011;1020;48.854;8.830;2023-06-14T00:24:03;4.33;;;3.93;;
2029;SDS011;1020;48.854;8.830;2023-06-14T00:26:30;4.10;;;3.80;;
2029;SDS011;1020;48.854;8.830;2023-06-14T00:28:57;4.60;;;4.30;;
2029;SDS011;1020;48.854;8.830;2023-06-14T00:31:25;4.53;;;4.13;;
2029;SDS011;1020;48.854;8.830;2023-06-14T00:33:52;5.07;;;4.67;;
2029;SDS011;1020;48.854;8.830;2023-06-14T00:36:19;4.40;;;4.00;;
2029;SDS011;1020;48.854;8.830;2023-06-14T00:38:46;5.40;;;4.60;;
2029;SDS011;1020;48.854;8.830;2023-06-14T00:41:12;4.33;;;4.03;;
2029;SDS011;1020;48.854;8.830;2023-06-14T00:43:39;6.30;;;4.23;;
2029;SDS011;1020;48.854;8.830;2023-06-14T00:46:06;5.57;;;4.10;;
2029;SDS011;1020;48.854;8.830;2023-06-14T00:48:34;4.33;;;4.03;;
2029;SDS011;1020;48.854;8.830;2023-06-14T00:51:03;4.97;;;4.57;;
2029;SDS011;1020;48.854;8.830;2023-06-14T00:53:30;9.53;;;4.53;;
2029;SDS011;1020;48.854;8.830;2023-06-14T00:55:59;4.93;;;4.27;;
2029;SDS011;1020;48.854;8.830;2023-06-14T00:58:26;4.97;;;4.47;;
2029;SDS011;1020;48.854;8.830;2023-06-14T01:00:53;4.20;;;3.90;;
2029;SDS011;1020;48.854;8.830;2023-06-14T01:03:21;4.67;;;4.30;;
2029;SDS011;1020;48.854;8.830;2023-06-14T01:05:50;4.77;;;4.27;;
2029;SDS011;1020;48.854;8.830;2023-06-14T01:08:22;4.50;;;4.20;;
2029;SDS011;1020;48.854;8.830;2023-06-14T01:10:59;5.27;;;4.80;;
2029;SDS011;1020;48.854;8.830;2023-06-14T01:13:32;4.33;;;4.00;;
2029;SDS011;1020;48.854;8.830;2023-06-14T01:16:00;6.73;;;4.40;;
2029;SDS011;1020;48.854;8.830;2023-06-14T01:18:28;4.90;;;4.60;;
2029;SDS011;1020;48.854;8.830;2023-06-14T01:20:56;4.73;;;4.33;;
2029;SDS011;1020;48.854;8.830;2023-06-14T01:23:25;5.30;;;4.90;;
2029;SDS011;1020;48.854;8.830;2023-06-14T01:25:57;4.47;;;4.10;;
2029;SDS011;1020;48.854;8.830;2023-06-14T01:28:24;4.40;;;4.10;;
2029;SDS011;1020;48.854;8.830;2023-06-14T01:30:57;5.17;;;4.70;;
2029;SDS011;1020;48.854;8.830;2023-06-14T01:33:49;5.00;;;4.60;;
2029;SDS011;1020;48.854;8.830;2023-06-14T01:36:31;5.10;;;4.70;;
2029;SDS011;1020;48.854;8.830;2023-06-14T01:38:59;5.07;;;4.67;;
2029;SDS011;1020;48.854;8.830;2023-06-14T01:41:27;5.13;;;4.67;;
2029;SDS011;1020;48.854;8.830;2023-06-14T01:43:56;4.53;;;4.13;;
2029;SDS011;1020;48.854;8.830;2023-06-14T01:46:24;5.10;;;4.60;;
2029;SDS011;1020;48.854;8.830;2023-06-14T01:48:51;5.00;;;4.60;;
2029;SDS011;1020;48.854;8.830;2023-06-14T01:51:18;4.83;;;4.43;;
2029;SDS011;1020;48.854;8.830;2023-06-14T01:53:45;4.63;;;4.20;;
2029;SDS011;1020;48.854;8.830;2023-06-14T01:56:13;5.57;;;5.07;;
2029;SDS011;1020;48.854;8.830;2023-06-14T01:58:40;4.77;;;4.43;;
2029;SDS011;1020;48.854;8.830;2023-06-14T02:01:07;4.70;;;4.30;;
2029;SDS011;1020;48.854;8.830;2023-06-14T02:03:33;6.13;;;5.00;;
2029;SDS011;1020;48.854;8.830;2023-06-14T02:06:03;4.40;;;4.00;;
2029;SDS011;1020;48.854;8.830;2023-06-14T02:08:29;5.47;;;4.97;;
2029;SDS011;1020;48.854;8.830;2023-06-14T02:10:56;5.17;;;4.70;;
2029;SDS011;1020;48.854;8.830;2023-06-14T02:13:24;8.73;;;5.00;;
2029;SDS011;1020;48.854;8.830;2023-06-14T02:15:51;5.40;;;5.00;;
2029;SDS011;1020;48.854;8.830;2023-06-14T02:18:19;4.90;;;4.40;;
2029;SDS011;1020;48.854;8.830;2023-06-14T02:20:46;4.77;;;4.37;;
2029;SDS011;1020;48.854;8.830;2023-06-14T02:23:13;5.07;;;4.67;;
2029;SDS011;1020;48.854;8.830;2023-06-14T02:25:40;5.27;;;4.87;;
2029;SDS011;1020;48.854;8.830;2023-06-14T02:28:08;5.00;;;4.60;;
2029;SDS011;1020;48.854;8.830;2023-06-14T02:30:36;5.33;;;4.83;;
2029;SDS011;1020;48.854;8.830;2023-06-14T02:33:03;4.47;;;4.07;;
2029;SDS011;1020;48.854;8.830;2023-06-14T02:35:30;4.07;;;3.77;;
2029;SDS011;1020;48.854;8.830;2023-06-14T02:37:57;4.60;;;4.20;;
2029;SDS011;1020;48.854;8.830;2023-06-14T02:40:24;4.80;;;4.37;;
2029;SDS011;1020;48.854;8.830;2023-06-14T02:42:50;5.30;;;4.90;;
2029;SDS011;1020;48.854;8.830;2023-06-14T02:45:17;5.03;;;4.63;;
2029;SDS011;1020;48.854;8.830;2023-06-14T02:47:47;5.37;;;4.67;;
2029;SDS011;1020;48.854;8.830;2023-06-14T02:50:14;5.07;;;4.57;;
2029;SDS011;1020;48.854;8.830;2023-06-14T02:52:41;5.63;;;4.90;;
2029;SDS011;1020;48.854;8.830;2023-06-14T02:55:09;6.27;;;4.90;;
2029;SDS011;1020;48.854;8.830;2023-06-14T02:57:37;5.40;;;4.90;;
2029;SDS011;1020;48.854;8.830;2023-06-14T03:00:04;5.00;;;4.60;;
2029;SDS011;1020;48.854;8.830;2023-06-14T03:02:34;5.57;;;4.90;;
2029;SDS011;1020;48.854;8.830;2023-06-14T03:05:02;4.70;;;4.30;;
2029;SDS011;1020;48.854;8.830;2023-06-14T03:07:31;7.60;;;5.00;;
2029;SDS011;1020;48.854;8.830;2023-06-14T03:09:59;5.20;;;4.00;;
2029;SDS011;1020;48.854;8.830;2023-06-14T03:12:26;4.50;;;4.20;;
2029;SDS011;1020;48.854;8.830;2023-06-14T03:14:53;5.10;;;4.70;;
2029;SDS011;1020;48.854;8.830;2023-06-14T03:17:22;4.30;;;4.00;;
2029;SDS011;1020;48.854;8.830;2023-06-14T03:19:49;5.10;;;4.70;;
2029;SDS011;1020;48.854;8.830;2023-06-14T03:22:17;5.27;;;4.87;;
2029;SDS011;1020;48.854;8.830;2023-06-14T03:24:44;4.97;;;4.57;;
2029;SDS011;1020;48.854;8.830;2023-06-14T03:27:12;5.43;;;4.93;;
2029;SDS011;1020;48.854;8.830;2023-06-14T03:29:39;5.83;;;5.37;;
2029;SDS011;1020;48.854;8.830;2023-06-14T03:32:06;5.27;;;4.87;;
2029;SDS011;1020;48.854;8.830;2023-06-14T03:34:33;5.63;;;5.13;;
2029;SDS011;1020;48.854;8.830;2023-06-14T03:37:00;5.50;;;5.10;;
2029;SDS011;1020;48.854;8.830;2023-06-14T03:39:28;6.20;;;5.60;;
2029;SDS011;1020;48.854;8.830;2023-06-14T03:41:55;6.07;;;5.57;;
2029;SDS011;1020;48.854;8.830;2023-06-14T03:44:22;5.70;;;5.07;;
2029;SDS011;1020;48.854;8.830;2023-06-14T03:46:51;5.23;;;4.83;;
2029;SDS011;1020;48.854;8.830;2023-06-14T03:49:18;6.07;;;5.47;;
2029;SDS011;1020;48.854;8.830;2023-06-14T03:51:46;5.30;;;4.90;;
2029;SDS011;1020;48.854;8.830;2023-06-14T03:54:16;5.73;;;5.30;;
2029;SDS011;1020;48.854;8.830;2023-06-14T03:56:44;4.93;;;4.53;;
2029;SDS011;1020;48.854;8.830;2023-06-14T03:59:11;6.07;;;5.57;;
2029;SDS011;1020;48.854;8.830;2023-06-14T04:01:38;5.40;;;4.90;;
2029;SDS011;1020;48.854;8.830;2023-06-14T04:04:11;5.93;;;5.00;;
2029;SDS011;1020;48.854;8.830;2023-06-14T04:06:38;5.80;;;5.30;;
2029;SDS011;1020;48.854;8.830;2023-06-14T04:09:05;4.83;;;4.43;;
2029;SDS011;1020;48.854;8.830;2023-06-14T04:11:32;6.33;;;5.70;;
2029;SDS011;1020;48.854;8.830;2023-06-14T04:14:01;5.70;;;5.20;;
2029;SDS011;1020;48.854;8.830;2023-06-14T04:16:28;4.70;;;4.40;;
2029;SDS011;1020;48.854;8.830;2023-06-14T04:18:55;5.70;;;5.30;;
2029;SDS011;1020;48.854;8.830;2023-06-14T04:21:23;5.87;;;5.47;;
2029;SDS011;1020;48.854;8.830;2023-06-14T04:23:52;5.77;;;5.30;;
2029;SDS011;1020;48.854;8.830;2023-06-14T04:26:20;4.90;;;4.30;;
2029;SDS011;1020;48.854;8.830;2023-06-14T04:28:48;6.00;;;5.50;;
2029;SDS011;1020;48.854;8.830;2023-06-14T04:31:17;6.90;;;6.20;;
2029;SDS011;1020;48.854;8.830;2023-06-14T04:33:44;6.37;;;5.77;;
2029;SDS011;1020;48.854;8.830;2023-06-14T04:36:11;6.47;;;6.00;;
2029;SDS011;1020;48.854;8.830;2023-06-14T04:38:39;6.23;;;5.40;;
2029;SDS011;1020;48.854;8.830;2023-06-14T04:41:06;5.83;;;5.43;;
2029;SDS011;1020;48.854;8.830;2023-06-14T04:43:36;5.30;;;4.90;;
2029;SDS011;1020;48.854;8.830;2023-06-14T04:46:04;5.60;;;5.20;;
2029;SDS011;1020;48.854;8.830;2023-06-14T04:48:36;5.43;;;4.93;;
2029;SDS011;1020;48.854;8.830;2023-06-14T04:51:04;6.27;;;5.77;;
2029;SDS011;1020;48.854;8.830;2023-06-14T04:53:31;9.87;;;5.30;;
2029;SDS011;1020;48.854;8.830;2023-06-14T04:56:01;5.47;;;4.97;;
2029;SDS011;1020;48.854;8.830;2023-06-14T04:58:29;6.53;;;5.87;;
2029;SDS011;1020;48.854;8.830;2023-06-14T05:00:55;6.07;;;5.50;;
2029;SDS011;1020;48.854;8.830;2023-06-14T05:03:24;4.83;;;4.37;;
2029;SDS011;1020;48.854;8.830;2023-06-14T05:05:53;5.93;;;5.40;;
2029;SDS011;1020;48.854;8.830;2023-06-14T05:08:20;5.50;;;5.10;;
2029;SDS011;1020;48.854;8.830;2023-06-14T05:10:48;6.70;;;5.60;;
2029;SDS011;1020;48.854;8.830;2023-06-14T05:13:15;5.50;;;5.00;;
2029;SDS011;1020;48.854;8.830;2023-06-14T05:15:42;6.40;;;5.67;;
2029;SDS011;1020;48.854;8.830;2023-06-14T05:18:09;5.63;;;5.23;;
2029;SDS011;1020;48.854;8.830;2023-06-14T05:20:36;5.30;;;4.90;;
2029;SDS011;1020;48.854;8.830;2023-06-14T05:23:04;5.50;;;5.10;;
2029;SDS011;1020;48.854;8.830;2023-06-14T05:25:31;5.27;;;4.97;;
2029;SDS011;1020;48.854;8.830;2023-06-14T05:27:58;5.40;;;5.00;;
2029;SDS011;1020;48.854;8.830;2023-06-14T05:30:25;5.67;;;5.27;;
2029;SDS011;1020;48.854;8.830;2023-06-14T05:32:54;5.57;;;5.17;;
2029;SDS011;1020;48.854;8.830;2023-06-14T05:35:21;5.67;;;5.17;;
2029;SDS011;1020;48.854;8.830;2023-06-14T05:37:48;6.57;;;6.10;;
2029;SDS011;1020;48.854;8.830;2023-06-14T05:40:16;5.90;;;5.40;;
2029;SDS011;1020;48.854;8.830;2023-06-14T05:42:43;6.20;;;5.80;;
2029;SDS011;1020;48.854;8.830;2023-06-14T05:45:10;5.87;;;5.37;;
2029;SDS011;1020;48.854;8.830;2023-06-14T05:47:36;5.83;;;5.33;;
2029;SDS011;1020;48.854;8.830;2023-06-14T05:50:03;5.50;;;5.20;;
2029;SDS011;1020;48.854;8.830;2023-06-14T05:52:31;6.03;;;5.60;;
2029;SDS011;1020;48.854;8.830;2023-06-14T05:54:58;6.10;;;5.60;;
2029;SDS011;1020;48.854;8.830;2023-06-14T05:57:27;6.53;;;6.03;;
2029;SDS011;1020;48.854;8.830;2023-06-14T05:59:53;6.80;;;6.30;;
2029;SDS011;1020;48.854;8.830;2023-06-14T06:02:20;6.37;;;5.87;;
2029;SDS011;1020;48.854;8.830;2023-06-14T06:04:47;6.37;;;5.73;;
2029;SDS011;1020;48.854;8.830;2023-06-14T06:07:14;6.53;;;5.93;;
2029;SDS011;1020;48.854;8.830;2023-06-14T06:09:41;6.13;;;5.73;;
2029;SDS011;1020;48.854;8.830;2023-06-14T06:12:08;6.07;;;5.67;;
2029;SDS011;1020;48.854;8.830;2023-06-14T06:14:36;5.80;;;5.40;;
2029;SDS011;1020;48.854;8.830;2023-06-14T06:17:03;6.73;;;6.13;;
2029;SDS011;1020;48.854;8.830;2023-06-14T06:19:31;7.07;;;6.50;;
2029;SDS011;1020;48.854;8.830;2023-06-14T06:21:58;6.90;;;5.90;;
2029;SDS011;1020;48.854;8.830;2023-06-14T06:24:25;6.20;;;5.70;;
2029;SDS011;1020;48.854;8.830;2023-06-14T06:26:51;6.27;;;5.87;;
2029;SDS011;1020;48.854;8.830;2023-06-14T06:29:19;7.07;;;5.30;;
2029;SDS011;1020;48.854;8.830;2023-06-14T06:31:47;6.70;;;6.10;;
2029;SDS011;1020;48.854;8.830;2023-06-14T06:34:14;5.80;;;5.40;;
2029;SDS011;1020;48.854;8.830;2023-06-14T06:36:40;5.70;;;5.20;;
2029;SDS011;1020;48.854;8.830;2023-06-14T06:39:07;6.50;;;6.00;;
2029;SDS011;1020;48.854;8.830;2023-06-14T06:41:35;6.50;;;6.00;;
2029;SDS011;1020;48.854;8.830;2023-06-14T06:44:04;6.87;;;6.33;;
2029;SDS011;1020;48.854;8.830;2023-06-14T06:46:31;6.73;;;6.03;;
2029;SDS011;1020;48.854;8.830;2023-06-14T06:49:00;5.13;;;4.83;;
2029;SDS011;1020;48.854;8.830;2023-06-14T06:51:27;6.13;;;5.63;;
2029;SDS011;1020;48.854;8.830;2023-06-14T06:53:53;6.73;;;5.30;;
2029;SDS011;1020;48.854;8.830;2023-06-14T06:56:20;6.63;;;5.63;;
2029;SDS011;1020;48.854;8.830;2023-06-14T06:58:48;6.30;;;5.80;;
2029;SDS011;1020;48.854;8.830;2023-06-14T07:01:15;6.33;;;5.73;;
2029;SDS011;1020;48.854;8.830;2023-06-14T07:03:41;5.23;;;4.80;;
2029;SDS011;1020;48.854;8.830;2023-06-14T07:06:10;5.33;;;4.83;;
2029;SDS011;1020;48.854;8.830;2023-06-14T07:08:36;5.60;;;5.20;;
2029;SDS011;1020;48.854;8.830;2023-06-14T07:11:04;5.73;;;5.10;;
2029;SDS011;1020;48.854;8.830;2023-06-14T07:13:31;5.87;;;5.37;;
2029;SDS011;1020;48.854;8.830;2023-06-14T07:15:58;6.27;;;5.67;;
2029;SDS011;1020;48.854;8.830;2023-06-14T07:18:25;6.17;;;5.60;;
2029;SDS011;1020;48.854;8.830;2023-06-14T07:20:52;5.70;;;5.20;;
2029;SDS011;1020;48.854;8.830;2023-06-14T07:23:21;6.70;;;5.90;;
2029;SDS011;1020;48.854;8.830;2023-06-14T07:25:48;6.67;;;5.57;;
2029;SDS011;1020;48.854;8.830;2023-06-14T07:28:15;7.93;;;5.50;;
2029;SDS011;1020;48.854;8.830;2023-06-14T07:30:43;6.57;;;5.97;;
2029;SDS011;1020;48.854;8.830;2023-06-14T07:33:10;5.90;;;5.50;;
2029;SDS011;1020;48.854;8.830;2023-06-14T07:35:37;6.50;;;5.47;;
2029;SDS011;1020;48.854;8.830;2023-06-14T07:38:04;7.80;;;5.00;;
2029;SDS011;1020;48.854;8.830;2023-06-14T07:40:32;5.60;;;4.97;;
2029;SDS011;1020;48.854;8.830;2023-06-14T07:42:58;5.40;;;4.97;;
2029;SDS011;1020;48.854;8.830;2023-06-14T07:45:26;5.20;;;4.70;;
2029;SDS011;1020;48.854;8.830;2023-06-14T07:47:53;5.33;;;4.90;;
2029;SDS011;1020;48.854;8.830;2023-06-14T07:50:20;5.20;;;4.80;;
2029;SDS011;1020;48.854;8.830;2023-06-14T07:52:47;5.10;;;4.67;;
2029;SDS011;1020;48.854;8.830;2023-06-14T07:55:14;4.33;;;4.03;;
2029;SDS011;1020;48.854;8.830;2023-06-14T07:57:42;4.40;;;4.10;;
2029;SDS011;1020;48.854;8.830;2023-06-14T08:00:10;7.43;;;4.63;;
2029;SDS011;1020;48.854;8.830;2023-06-14T08:02:40;3.83;;;3.53;;
2029;SDS011;1020;48.854;8.830;2023-06-14T08:05:07;4.43;;;4.03;;
2029;SDS011;1020;48.854;8.830;2023-06-14T08:07:35;4.33;;;3.97;;
2029;SDS011;1020;48.854;8.830;2023-06-14T08:10:02;4.83;;;4.53;;
2029;SDS011;1020;48.854;8.830;2023-06-14T08:12:29;7.53;;;4.60;;
2029;SDS011;1020;48.854;8.830;2023-06-14T08:14:57;5.20;;;4.13;;
2029;SDS011;1020;48.854;8.830;2023-06-14T08:17:24;5.43;;;3.67;;
2029;SDS011;1020;48.854;8.830;2023-06-14T08:19:51;4.50;;;4.20;;
2029;SDS011;1020;48.854;8.830;2023-06-14T08:22:19;4.37;;;4.07;;
2029;SDS011;1020;48.854;8.830;2023-06-14T08:24:46;4.47;;;4.17;;
2029;SDS011;1020;48.854;8.830;2023-06-14T08:27:13;3.77;;;3.57;;
2029;SDS011;1020;48.854;8.830;2023-06-14T08:29:40;7.83;;;4.50;;
2029;SDS011;1020;48.854;8.830;2023-06-14T08:32:10;4.07;;;3.80;;
2029;SDS011;1020;48.854;8.830;2023-06-14T08:34:36;4.10;;;3.80;;
2029;SDS011;1020;48.854;8.830;2023-06-14T08:37:03;3.90;;;3.60;;
2029;SDS011;1020;48.854;8.830;2023-06-14T08:39:31;4.70;;;4.40;;
2029;SDS011;1020;48.854;8.830;2023-06-14T08:41:58;4.37;;;4.07;;
2029;SDS011;1020;48.854;8.830;2023-06-14T08:44:28;6.40;;;4.00;;
2029;SDS011;1020;48.854;8.830;2023-06-14T08:46:55;4.77;;;4.10;;
2029;SDS011;1020;48.854;8.830;2023-06-14T08:49:24;4.07;;;3.87;;
2029;SDS011;1020;48.854;8.830;2023-06-14T08:51:53;4.27;;;3.97;;
2029;SDS011;1020;48.854;8.830;2023-06-14T08:54:23;4.53;;;4.23;;
2029;SDS011;1020;48.854;8.830;2023-06-14T08:56:52;3.70;;;3.50;;
2029;SDS011;1020;48.854;8.830;2023-06-14T08:59:22;5.73;;;4.47;;
2029;SDS011;1020;48.854;8.830;2023-06-14T09:01:51;4.47;;;4.00;;
2029;SDS011;1020;48.854;8.830;2023-06-14T09:04:19;3.60;;;3.30;;
2029;SDS011;1020;48.854;8.830;2023-06-14T09:06:48;4.20;;;3.90;;
2029;SDS011;1020;48.854;8.830;2023-06-14T09:09:18;5.13;;;4.40;;
2029;SDS011;1020;48.854;8.830;2023-06-14T09:11:45;4.20;;;3.90;;
2029;SDS011;1020;48.854;8.830;2023-06-14T09:14:12;4.20;;;3.80;;
2029;SDS011;1020;48.854;8.830;2023-06-14T09:16:39;5.50;;;3.97;;
2029;SDS011;1020;48.854;8.830;2023-06-14T09:19:06;6.60;;;4.20;;
2029;SDS011;1020;48.854;8.830;2023-06-14T09:21:33;4.30;;;3.93;;
2029;SDS011;1020;48.854;8.830;2023-06-14T09:24:02;5.27;;;4.27;;
2029;SDS011;1020;48.854;8.830;2023-06-14T09:26:30;4.90;;;4.50;;
2029;SDS011;1020;48.854;8.830;2023-06-14T09:28:57;5.80;;;4.00;;
2029;SDS011;1020;48.854;8.830;2023-06-14T09:31:24;5.43;;;5.03;;
2029;SDS011;1020;48.854;8.830;2023-06-14T09:33:54;4.63;;;4.33;;
2029;SDS011;1020;48.854;8.830;2023-06-14T09:36:22;7.70;;;3.90;;
2029;SDS011;1020;48.854;8.830;2023-06-14T09:38:53;4.03;;;3.67;;
2029;SDS011;1020;48.854;8.830;2023-06-14T09:41:29;5.13;;;4.80;;
2029;SDS011;1020;48.854;8.830;2023-06-14T09:43:58;7.37;;;4.30;;
2029;SDS011;1020;48.854;8.830;2023-06-14T09:46:27;4.90;;;4.47;;
2029;SDS011;1020;48.854;8.830;2023-06-14T09:48:54;4.27;;;3.97;;
2029;SDS011;1020;48.854;8.830;2023-06-14T09:51:21;4.27;;;3.90;;
2029;SDS011;1020;48.854;8.830;2023-06-14T09:53:49;4.30;;;4.00;;
2029;SDS011;1020;48.854;8.830;2023-06-14T09:56:17;4.40;;;4.07;;
2029;SDS011;1020;48.854;8.830;2023-06-14T09:58:53;4.20;;;3.80;;
2029;SDS011;1020;48.854;8.830;2023-06-14T10:01:21;3.97;;;3.60;;
2029;SDS011;1020;48.854;8.830;2023-06-14T10:03:50;4.07;;;3.70;;
2029;SDS011;1020;48.854;8.830;2023-06-14T10:06:22;4.37;;;3.97;;
2029;SDS011;1020;48.854;8.830;2023-06-14T10:08:50;3.73;;;3.20;;
2029;SDS011;1020;48.854;8.830;2023-06-14T10:11:22;4.40;;;4.00;;
2029;SDS011;1020;48.854;8.830;2023-06-14T10:13:49;4.10;;;3.80;;
2029;SDS011;1020;48.854;8.830;2023-06-14T10:16:20;3.90;;;3.60;;
2029;SDS011;1020;48.854;8.830;2023-06-14T10:18:51;5.40;;;3.50;;
2029;SDS011;1020;48.854;8.830;2023-06-14T10:21:28;4.30;;;3.20;;
2029;SDS011;1020;48.854;8.830;2023-06-14T10:24:05;3.90;;;3.60;;
2029;SDS011;1020;48.854;8.830;2023-06-14T10:26:39;4.27;;;3.10;;
2029;SDS011;1020;48.854;8.830;2023-06-14T10:29:17;3.40;;;3.13;;
2029;SDS011;1020;48.854;8.830;2023-06-14T10:31:46;3.87;;;3.57;;
2029;SDS011;1020;48.854;8.830;2023-06-14T10:34:21;3.63;;;3.33;;
2029;SDS011;1020;48.854;8.830;2023-06-14T10:36:59;3.30;;;3.10;;
2029;SDS011;1020;48.854;8.830;2023-06-14T10:39:27;4.37;;;3.80;;
2029;SDS011;1020;48.854;8.830;2023-06-14T10:41:55;4.00;;;3.70;;
2029;SDS011;1020;48.854;8.830;2023-06-14T10:44:32;3.37;;;3.07;;
2029;SDS011;1020;48.854;8.830;2023-06-14T10:47:23;3.80;;;3.60;;
2029;SDS011;1020;48.854;8.830;2023-06-14T10:49:54;4.27;;;3.90;;
2029;SDS011;1020;48.854;8.830;2023-06-14T10:52:22;4.53;;;3.57;;
2029;SDS011;1020;48.854;8.830;2023-06-14T10:55:02;3.80;;;3.50;;
2029;SDS011;1020;48.854;8.830;2023-06-14T10:57:36;4.80;;;4.10;;
2029;SDS011;1020;48.854;8.830;2023-06-14T11:00:04;4.27;;;3.27;;
2029;SDS011;1020;48.854;8.830;2023-06-14T11:05:47;4.10;;;3.70;;
2029;SDS011;1020;48.854;8.830;2023-06-14T11:08:26;3.73;;;3.40;;
2029;SDS011;1020;48.854;8.830;2023-06-14T11:11:01;3.70;;;3.50;;
2029;SDS011;1020;48.854;8.830;2023-06-14T11:13:32;3.83;;;3.53;;
2029;SDS011;1020;48.854;8.830;2023-06-14T11:15:59;3.37;;;3.07;;
2029;SDS011;1020;48.854;8.830;2023-06-14T11:18:26;3.83;;;3.53;;
2029;SDS011;1020;48.854;8.830;2023-06-14T11:20:55;4.70;;;3.47;;
2029;SDS011;1020;48.854;8.830;2023-06-14T11:23:22;3.10;;;2.80;;
2029;SDS011;1020;48.854;8.830;2023-06-14T11:25:49;5.10;;;3.33;;
2029;SDS011;1020;48.854;8.830;2023-06-14T11:28:17;3.57;;;3.20;;
2029;SDS011;1020;48.854;8.830;2023-06-14T11:30:44;3.70;;;3.50;;
2029;SDS011;1020;48.854;8.830;2023-06-14T11:33:11;3.73;;;3.43;;
2029;SDS011;1020;48.854;8.830;2023-06-14T11:35:43;3.90;;;3.70;;
2029;SDS011;1020;48.854;8.830;2023-06-14T11:38:11;3.10;;;2.90;;
2029;SDS011;1020;48.854;8.830;2023-06-14T11:40:39;3.53;;;3.23;;
2029;SDS011;1020;48.854;8.830;2023-06-14T11:43:05;3.87;;;3.67;;
2029;SDS011;1020;48.854;8.830;2023-06-14T11:45:32;3.73;;;3.40;;
2029;SDS011;1020;48.854;8.830;2023-06-14T11:48:00;3.50;;;3.30;;
2029;SDS011;1020;48.854;8.830;2023-06-14T11:50:27;3.60;;;3.30;;
2029;SDS011;1020;48.854;8.830;2023-06-14T11:52:56;3.80;;;3.57;;
2029;SDS011;1020;48.854;8.830;2023-06-14T11:55:26;4.20;;;3.90;;
2029;SDS011;1020;48.854;8.830;2023-06-14T11:57:53;3.43;;;3.13;;
2029;SDS011;1020;48.854;8.830;2023-06-14T12:00:23;5.47;;;3.80;;
2029;SDS011;1020;48.854;8.830;2023-06-14T12:02:54;3.80;;;3.40;;
2029;SDS011;1020;48.854;8.830;2023-06-14T12:05:22;4.47;;;3.23;;
2029;SDS011;1020;48.854;8.830;2023-06-14T12:07:50;3.53;;;3.30;;
2029;SDS011;1020;48.854;8.830;2023-06-14T12:10:26;3.43;;;3.23;;
2029;SDS011;1020;48.854;8.830;2023-06-14T12:12:56;3.53;;;3.03;;
2029;SDS011;1020;48.854;8.830;2023-06-14T12:15:24;2.90;;;2.70;;
2029;SDS011;1020;48.854;8.830;2023-06-14T12:17:54;3.10;;;2.90;;
2029;SDS011;1020;48.854;8.830;2023-06-14T12:20:21;3.53;;;3.23;;
2029;SDS011;1020;48.854;8.830;2023-06-14T12:22:52;3.53;;;3.33;;
2029;SDS011;1020;48.854;8.830;2023-06-14T12:25:24;3.43;;;3.23;;
2029;SDS011;1020;48.854;8.830;2023-06-14T12:27:56;3.20;;;3.00;;
2029;SDS011;1020;48.854;8.830;2023-06-14T12:30:23;4.23;;;3.93;;
2029;SDS011;1020;48.854;8.830;2023-06-14T12:32:50;3.60;;;3.30;;
2029;SDS011;1020;48.854;8.830;2023-06-14T12:35:17;3.10;;;2.87;;
2029;SDS011;1020;48.854;8.830;2023-06-14T12:37:45;4.73;;;2.90;;
2029;SDS011;1020;48.854;8.830;2023-06-14T12:40:12;3.53;;;3.23;;
2029;SDS011;1020;48.854;8.830;2023-06-14T12:42:40;3.33;;;3.03;;
2029;SDS011;1020;48.854;8.830;2023-06-14T12:45:07;3.13;;;2.93;;
2029;SDS011;1020;48.854;8.830;2023-06-14T12:47:35;3.27;;;3.07;;
2029;SDS011;1020;48.854;8.830;2023-06-14T12:50:02;4.17;;;3.70;;
2029;SDS011;1020;48.854;8.830;2023-06-14T12:52:30;3.47;;;3.23;;
2029;SDS011;1020;48.854;8.830;2023-06-14T12:54:57;3.97;;;3.57;;
2029;SDS011;1020;48.854;8.830;2023-06-14T12:57:23;3.87;;;3.43;;
2029;SDS011;1020;48.854;8.830;2023-06-14T12:59:52;3.63;;;3.27;;
2029;SDS011;1020;48.854;8.830;2023-06-14T13:02:19;3.23;;;2.93;;
2029;SDS011;1020;48.854;8.830;2023-06-14T13:04:47;3.20;;;2.97;;
2029;SDS011;1020;48.854;8.830;2023-06-14T13:07:14;3.87;;;3.17;;
2029;SDS011;1020;48.854;8.830;2023-06-14T13:09:41;3.20;;;3.10;;
2029;SDS011;1020;48.854;8.830;2023-06-14T13:12:09;2.80;;;2.60;;
2029;SDS011;1020;48.854;8.830;2023-06-14T13:14:37;3.93;;;3.03;;
2029;SDS011;1020;48.854;8.830;2023-06-14T13:17:07;3.17;;;2.67;;
2029;SDS011;1020;48.854;8.830;2023-06-14T13:19:35;3.00;;;2.80;;
2029;SDS011;1020;48.854;8.830;2023-06-14T13:24:30;5.03;;;2.80;;
2029;SDS011;1020;48.854;8.830;2023-06-14T13:26:57;3.23;;;3.03;;
2029;SDS011;1020;48.854;8.830;2023-06-14T13:29:23;3.23;;;3.00;;
2029;SDS011;1020;48.854;8.830;2023-06-14T13:31:51;3.37;;;3.17;;
2029;SDS011;1020;48.854;8.830;2023-06-14T13:34:19;3.60;;;3.30;;
2029;SDS011;1020;48.854;8.830;2023-06-14T13:36:46;2.97;;;2.80;;
2029;SDS011;1020;48.854;8.830;2023-06-14T13:39:15;2.83;;;2.57;;
2029;SDS011;1020;48.854;8.830;2023-06-14T13:41:41;3.50;;;3.30;;
2029;SDS011;1020;48.854;8.830;2023-06-14T13:44:08;3.30;;;3.10;;
2029;SDS011;1020;48.854;8.830;2023-06-14T13:46:36;3.30;;;3.10;;
2029;SDS011;1020;48.854;8.830;2023-06-14T13:49:03;3.03;;;2.83;;
2029;SDS011;1020;48.854;8.830;2023-06-14T13:51:31;3.50;;;3.20;;
2029;SDS011;1020;48.854;8.830;2023-06-14T13:54:00;3.10;;;2.90;;
2029;SDS011;1020;48.854;8.830;2023-06-14T13:56:27;3.53;;;3.33;;
2029;SDS011;1020;48.854;8.830;2023-06-14T13:58:55;3.63;;;3.30;;
2029;SDS011;1020;48.854;8.830;2023-06-14T14:01:21;3.20;;;3.00;;
2029;SDS011;1020;48.854;8.830;2023-06-14T14:03:49;4.30;;;3.23;;
2029;SDS011;1020;48.854;8.830;2023-06-14T14:06:15;3.73;;;3.30;;
2029;SDS011;1020;48.854;8.830;2023-06-14T14:08:43;3.23;;;3.03;;
2029;SDS011;1020;48.854;8.830;2023-06-14T14:11:10;3.43;;;3.17;;
2029;SDS011;1020;48.854;8.830;2023-06-14T14:13:37;3.40;;;3.20;;
2029;SDS011;1020;48.854;8.830;2023-06-14T14:16:05;3.30;;;3.10;;
2029;SDS011;1020;48.854;8.830;2023-06-14T14:18:32;3.67;;;3.37;;
2029;SDS011;1020;48.854;8.830;2023-06-14T14:20:58;4.10;;;3.30;;
2029;SDS011;1020;48.854;8.830;2023-06-14T14:23:27;3.30;;;3.10;;
2029;SDS011;1020;48.854;8.830;2023-06-14T14:25:55;4.07;;;3.40;;
2029;SDS011;1020;48.854;8.830;2023-06-14T14:28:22;4.23;;;3.40;;
2029;SDS011;1020;48.854;8.830;2023-06-14T14:30:49;3.40;;;3.20;;
2029;SDS011;1020;48.854;8.830;2023-06-14T14:33:16;3.20;;;3.00;;
2029;SDS011;1020;48.854;8.830;2023-06-14T14:35:43;3.20;;;3.00;;
2029;SDS011;1020;48.854;8.830;2023-06-14T14:38:10;3.27;;;2.97;;
2029;SDS011;1020;48.854;8.830;2023-06-14T14:40:37;3.53;;;3.33;;
2029;SDS011;1020;48.854;8.830;2023-06-14T14:43:06;3.40;;;3.20;;
2029;SDS011;1020;48.854;8.830;2023-06-14T14:45:33;3.47;;;3.17;;
2029;SDS011;1020;48.854;8.830;2023-06-14T14:48:00;3.33;;;3.10;;
2029;SDS011;1020;48.854;8.830;2023-06-14T14:50:27;3.40;;;3.20;;
2029;SDS011;1020;48.854;8.830;2023-06-14T14:52:54;3.37;;;2.87;;
2029;SDS011;1020;48.854;8.830;2023-06-14T14:55:21;3.40;;;3.20;;
2029;SDS011;1020;48.854;8.830;2023-06-14T14:57:48;3.80;;;3.50;;
2029;SDS011;1020;48.854;8.830;2023-06-14T15:00:16;4.00;;;3.13;;
2029;SDS011;1020;48.854;8.830;2023-06-14T15:02:43;3.93;;;3.63;;
2029;SDS011;1020;48.854;8.830;2023-06-14T15:05:10;3.27;;;2.70;;
2029;SDS011;1020;48.854;8.830;2023-06-14T15:07:37;3.53;;;3.33;;
2029;SDS011;1020;48.854;8.830;2023-06-14T15:10:05;4.17;;;3.70;;
2029;SDS011;1020;48.854;8.830;2023-06-14T15:12:33;5.77;;;4.33;;
2029;SDS011;1020;48.854;8.830;2023-06-14T15:15:00;3.10;;;2.97;;
2029;SDS011;1020;48.854;8.830;2023-06-14T15:17:29;3.27;;;3.10;;
2029;SDS011;1020;48.854;8.830;2023-06-14T15:19:56;3.40;;;3.10;;
2029;SDS011;1020;48.854;8.830;2023-06-14T15:22:23;3.20;;;3.00;;
2029;SDS011;1020;48.854;8.830;2023-06-14T15:24:50;3.40;;;3.10;;
2029;SDS011;1020;48.854;8.830;2023-06-14T15:27:16;3.90;;;3.47;;